メインページ
METAR-TAF:

METAR-TAF

空港 :

フォス・ド・イグアス国際空港

フォス・ド・イグアス, パラナ州, ブラジル

緯度: 25-31S, 経度: 054-35W, 海抜: 180m

現時点の気象観測

当レポートは25分前の21:00(UTC)に作成
無風
気温 22°C
湿度 69%
気圧 1021 hPa
視程10km以上
1,500メートル以下は雲なし、積乱雲なし

METAR: SBFI 162100Z 00000KT CAVOK 22/16 Q1021

時間: 18:25 (21:25 UTC)

予報

当レポートは6時間25分前の15:00(UTC)に作成
予報は16日の 18時(UTC)から 17日の 18時(UTC)まで有効
東/南東の風 5kt
視程10km以上
1,500メートル以下は雲なし、積乱雲なし
確率 40% :
17日の 06時(UTC)から 17日の 12時(UTC)まで一時的に
視程: 5000m

TAF: SBFI 161500Z 1618/1718 11005KT CAVOK TN14/1708Z TX28/1718Z PROB40 TEMPO 1706/1712 5000 BR NSC RMK PDW

4,000以上の空港の気象観測と天気予報(METAR報とTAF報)

利用可能な観測所は地図上に黄色い丸と赤い丸で示す。

丸の上にカーソルを重ねると観測所名を参照できる。

次にクリックすると気象観測と天気予報を参照できる。

マップの切り替え:黒色「×」印の緑ボタンをクリックして拡大、「-」印の緑ボタンをクリックして縮小、緑色の三角印をクリックして隣りの地図に切り替え


METAR-TAF: